Time;durP1;ratioP1;P1;durP2;ratioP2;P2;SDS_P1;SDS_P2;PMS_P1;PMS_P2;Temp;Humidity;BMP_temperature;BMP_pressure;BME280_temperature;BME280_humidity;BME280_pressure;Samples;Min_cycle;Max_cycle;Signal;HPM_P1;HPM_P2
2022/08/12 00:44:51;;;;;;;2.55;2.35;;;21.00;97.20;;;;;;6339508;22;20002;-75
2022/08/12 00:47:18;;;;;;;4.57;3.20;;;21.00;97.20;;;;;;6339310;22;20011;-75
2022/08/12 00:49:44;;;;;;;3.20;2.90;;;21.00;97.10;;;;;;6338472;22;20055;-75
2022/08/12 00:52:11;;;;;;;2.70;2.50;;;21.00;97.20;;;;;;6338847;22;19999;-76
2022/08/12 00:54:52;;;;;;;3.50;2.67;;;21.00;97.50;;;;;;6339175;22;20419;-76
2022/08/12 00:57:21;;;;;;;2.85;2.60;;;20.90;97.50;;;;;;6337971;22;20053;-74
2022/08/12 00:59:51;;;;;;;3.55;2.85;;;20.90;97.80;;;;;;6339510;22;19999;-74
2022/08/12 01:02:32;;;;;;;4.35;3.03;;;20.80;97.80;;;;;;6338953;22;20011;-74
2022/08/12 01:13:22;;;;;;;3.75;2.63;;;20.70;98.20;;;;;;6338875;22;20513;-75
2022/08/12 01:15:58;;;;;;;2.80;2.60;;;20.70;98.50;;;;;;6339866;22;19999;-74
2022/08/12 01:18:30;;;;;;;2.97;2.53;;;20.60;98.40;;;;;;6337933;22;20085;-75
2022/08/12 01:21:16;;;;;;;11.40;2.75;;;20.60;98.50;;;;;;6339001;22;20103;-75
2022/08/12 01:24:19;;;;;;;8.90;2.67;;;20.50;98.60;;;;;;6311391;22;20090;-75
2022/08/12 01:26:46;;;;;;;5.65;3.38;;;20.50;98.60;;;;;;6338370;22;20002;-75
2022/08/12 01:29:17;;;;;;;3.83;2.83;;;20.50;98.80;;;;;;6338832;22;20002;-75
2022/08/12 01:31:48;;;;;;;5.97;2.90;;;20.50;98.90;;;;;;6338342;22;20003;-75
2022/08/12 01:34:21;;;;;;;6.72;2.80;;;20.50;98.70;;;;;;6338696;22;20003;-75
2022/08/12 01:37:01;;;;;;;3.47;2.90;;;20.40;98.90;;;;;;6339174;22;20011;-75
2022/08/12 01:39:32;;;;;;;3.28;2.58;;;20.40;98.90;;;;;;6338168;22;19998;-74
2022/08/12 01:42:03;;;;;;;5.80;2.80;;;20.40;98.90;;;;;;6339506;22;20007;-75
2022/08/12 01:44:31;;;;;;;4.43;2.88;;;20.50;98.60;;;;;;6338410;22;20453;-75
2022/08/12 01:47:38;;;;;;;4.47;3.08;;;20.40;98.80;;;;;;6338197;22;20111;-75
2022/08/12 01:50:25;;;;;;;3.22;3.00;;;20.40;99.00;;;;;;6339021;22;20003;-75
2022/08/12 01:52:54;;;;;;;5.90;3.67;;;20.40;98.80;;;;;;6338004;22;19998;-75
2022/08/12 01:55:23;;;;;;;4.50;3.35;;;20.40;98.90;;;;;;6338646;22;20003;-74
2022/08/12 01:57:59;;;;;;;4.43;3.33;;;20.40;98.80;;;;;;6338989;22;20006;-75
2022/08/12 02:00:47;;;;;;;5.95;3.53;;;20.30;98.90;;;;;;6337158;22;20314;-76
2022/08/12 02:12:57;;;;;;;3.63;3.33;;;20.20;99.30;;;;;;6317610;22;20375;-75
2022/08/12 02:15:46;;;;;;;5.43;3.20;;;20.20;99.40;;;;;;6338053;22;20014;-76
2022/08/12 02:18:27;;;;;;;7.97;3.53;;;20.10;99.40;;;;;;6338344;22;20015;-76
2022/08/12 02:21:12;;;;;;;3.40;3.10;;;20.00;99.60;;;;;;6338156;22;20002;-75
2022/08/12 02:23:39;;;;;;;3.90;3.60;;;20.00;99.80;;;;;;6339005;22;20518;-75
2022/08/12 02:26:08;;;;;;;4.97;4.53;;;19.90;99.90;;;;;;6339606;22;20006;-75
2022/08/12 02:28:36;;;;;;;7.75;4.28;;;20.00;99.80;;;;;;6338732;22;19991;-75
2022/08/12 02:31:04;;;;;;;5.45;3.97;;;19.90;99.90;;;;;;6338749;22;20070;-76
2022/08/12 02:33:31;;;;;;;5.40;4.07;;;20.00;99.90;;;;;;6337122;22;20434;-76
2022/08/12 02:36:01;;;;;;;7.10;4.20;;;19.90;99.90;;;;;;6337975;22;20002;-76
2022/08/12 02:38:27;;;;;;;3.80;3.47;;;19.90;99.90;;;;;;6339111;22;20014;-76
2022/08/12 02:40:56;;;;;;;5.00;3.95;;;19.80;99.90;;;;;;6338984;22;20308;-75
2022/08/12 02:43:44;;;;;;;6.47;3.83;;;19.90;99.90;;;;;;6337492;22;20075;-74
2022/08/12 02:46:12;;;;;;;6.10;4.05;;;19.90;99.90;;;;;;6338277;22;20003;-75
2022/08/12 02:49:04;;;;;;;4.43;4.03;;;19.80;99.90;;;;;;6337498;22;20007;-75
2022/08/12 02:51:32;;;;;;;7.70;5.25;;;19.70;99.90;;;;;;6338162;22;20026;-74
2022/08/12 02:54:02;;;;;;;5.05;4.53;;;19.70;99.90;;;;;;6338351;22;19999;-75
2022/08/12 02:56:29;;;;;;;6.77;4.73;;;19.60;99.90;;;;;;6337132;22;20377;-77
2022/08/12 02:58:57;;;;;;;4.40;4.10;;;19.70;99.90;;;;;;6338018;22;20005;-75
2022/08/12 03:01:32;;;;;;;6.05;4.15;;;19.60;99.90;;;;;;6337513;22;20007;-75
2022/08/12 03:03:59;;;;;;;5.70;5.10;;;19.60;99.90;;;;;;6337880;22;20006;-75
2022/08/12 03:06:32;;;;;;;5.22;4.82;;;19.60;99.90;;;;;;6338838;22;19999;-75
2022/08/12 03:09:02;;;;;;;10.70;5.10;;;19.50;99.90;;;;;;6337983;22;20025;-75
2022/08/12 03:11:33;;;;;;;6.95;5.10;;;19.50;99.90;;;;;;6337151;22;20010;-75
2022/08/12 03:14:00;;;;;;;12.10;5.65;;;19.40;99.90;;;;;;6339844;22;20075;-75
2022/08/12 03:16:29;;;;;;;5.70;5.15;;;19.40;99.90;;;;;;6337066;22;20006;-77
2022/08/12 03:18:56;;;;;;;5.13;4.72;;;19.40;99.90;;;;;;6337704;22;20056;-77
2022/08/12 03:21:24;;;;;;;10.80;5.38;;;19.40;99.90;;;;;;6338331;22;20040;-76
2022/08/12 03:23:52;;;;;;;5.05;4.75;;;19.30;99.90;;;;;;6338436;22;20022;-74
2022/08/12 03:26:23;;;;;;;5.10;4.80;;;19.20;99.90;;;;;;6338946;22;20741;-75
2022/08/12 03:28:49;;;;;;;;;;;19.10;99.90;;;;;;6340778;22;19999;-74
2022/08/12 03:31:17;;;;;;;5.72;4.47;;;19.20;99.90;;;;;;6339462;22;19977;-75
2022/08/12 03:33:45;;;;;;;5.88;5.30;;;19.20;99.90;;;;;;6343933;22;20006;-77
2022/08/12 03:36:19;;;;;;;5.60;4.90;;;19.10;99.90;;;;;;6350708;22;19999;-75
2022/08/12 03:39:13;;;;;;;6.82;5.75;;;19.10;99.90;;;;;;6350897;22;20054;-76
2022/08/12 03:41:36;;;;;;;5.28;4.78;;;19.10;99.90;;;;;;6343942;22;20035;-76
2022/08/12 04:00:45;;;;;;;5.63;5.18;;;18.90;99.90;;;;;;6337358;22;20379;-76
2022/08/12 04:05:55;;;;;;;5.88;5.38;;;18.90;99.90;;;;;;6337544;22;20456;-75
2022/08/12 04:08:24;;;;;;;5.80;5.20;;;18.80;99.90;;;;;;6336611;22;20044;-75
2022/08/12 04:13:34;;;;;;;5.68;5.20;;;18.80;99.90;;;;;;6336829;22;20013;-77
2022/08/12 04:16:01;;;;;;;5.82;4.82;;;18.70;99.90;;;;;;6337179;22;20022;-77
2022/08/12 04:18:27;;;;;;;5.28;4.72;;;18.70;99.90;;;;;;6337203;22;20013;-75
2022/08/12 04:20:54;;;;;;;5.35;4.88;;;18.70;99.90;;;;;;6336804;22;20002;-75
2022/08/12 04:23:24;;;;;;;7.68;5.30;;;18.70;99.90;;;;;;6337062;22;20097;-77
2022/08/12 04:25:50;;;;;;;5.85;5.30;;;18.60;99.90;;;;;;6338058;22;20032;-76
2022/08/12 04:28:24;;;;;;;6.47;4.97;;;18.60;99.90;;;;;;6337287;22;20357;-75
2022/08/12 04:30:50;;;;;;;4.75;4.40;;;18.60;99.90;;;;;;6338155;22;20002;-76
2022/08/12 04:33:18;;;;;;;5.75;5.25;;;18.60;99.90;;;;;;6336920;22;19999;-77
2022/08/12 04:35:43;;;;;;;6.25;5.65;;;18.60;99.90;;;;;;6337200;22;20003;-76
2022/08/12 04:38:10;;;;;;;7.30;4.90;;;18.60;99.90;;;;;;6337170;22;20390;-77
2022/08/12 04:40:35;;;;;;;8.00;4.57;;;18.60;99.90;;;;;;6337349;22;20003;-77
2022/08/12 04:43:04;;;;;;;5.57;4.93;;;18.60;99.90;;;;;;6337184;22;20025;-76
2022/08/12 04:45:31;;;;;;;5.47;4.97;;;18.70;99.90;;;;;;6337301;22;20006;-75
2022/08/12 04:47:58;;;;;;;7.75;4.93;;;18.60;99.90;;;;;;6337223;22;20010;-76
2022/08/12 04:50:24;;;;;;;8.50;4.85;;;18.60;99.90;;;;;;6338537;22;20314;-76
2022/08/12 04:52:51;;;;;;;6.53;5.25;;;18.60;99.90;;;;;;6339234;22;20347;-76
2022/08/12 04:55:17;;;;;;;9.20;5.47;;;18.70;99.90;;;;;;6339235;22;20006;-75
2022/08/12 04:57:43;;;;;;;6.75;5.35;;;18.70;99.90;;;;;;6339087;22;20015;-75
2022/08/12 05:00:13;;;;;;;5.18;4.68;;;19.30;99.90;;;;;;6338483;22;20422;-75
2022/08/12 05:02:38;;;;;;;7.03;4.47;;;18.70;99.90;;;;;;6341130;22;20042;-75
2022/08/12 05:05:07;;;;;;;4.88;4.53;;;18.80;99.90;;;;;;6348315;22;20006;-75
2022/08/12 05:07:34;;;;;;;5.72;4.63;;;18.80;99.90;;;;;;6340172;22;20007;-76
2022/08/12 05:10:01;;;;;;;6.85;4.47;;;18.80;99.90;;;;;;6339462;22;20001;-76
2022/08/12 05:12:35;;;;;;;6.95;5.15;;;18.80;99.90;;;;;;6339762;22;20007;-76
2022/08/12 05:15:01;;;;;;;6.13;4.60;;;18.80;99.90;;;;;;6341268;22;20007;-76
2022/08/12 05:17:27;;;;;;;7.70;6.15;;;18.90;99.90;;;;;;6338917;22;20441;-76
2022/08/12 05:19:52;;;;;;;5.25;4.75;;;18.90;99.90;;;;;;6339442;22;20003;-76
2022/08/12 05:22:18;;;;;;;6.00;4.82;;;19.00;99.90;;;;;;6338872;22;19999;-76
2022/08/12 05:24:43;;;;;;;5.40;4.90;;;19.00;99.90;;;;;;6338612;22;20031;-75
2022/08/12 05:27:10;;;;;;;5.63;5.13;;;19.00;99.90;;;;;;6338863;22;20003;-75
2022/08/12 05:29:38;;;;;;;6.13;5.03;;;19.10;99.90;;;;;;6338987;22;20078;-75
2022/08/12 05:32:06;;;;;;;5.28;4.78;;;19.10;99.90;;;;;;6338811;22;20024;-76
2022/08/12 05:34:33;;;;;;;6.38;5.15;;;19.10;99.90;;;;;;6338884;22;19999;-76
2022/08/12 05:37:00;;;;;;;5.25;4.85;;;19.10;99.90;;;;;;6338235;22;20018;-76
2022/08/12 05:39:27;;;;;;;9.05;5.35;;;19.20;99.90;;;;;;6338087;22;20010;-77
2022/08/12 05:41:53;;;;;;;6.65;5.35;;;19.20;99.90;;;;;;6339239;22;20045;-74
2022/08/12 05:44:18;;;;;;;5.97;5.38;;;19.30;99.90;;;;;;6338059;22;20460;-77
2022/08/12 05:46:44;;;;;;;5.78;5.28;;;19.40;99.90;;;;;;6338594;22;19999;-77
2022/08/12 05:49:10;;;;;;;5.63;5.15;;;19.40;99.90;;;;;;6338532;22;20070;-76
2022/08/12 05:51:38;;;;;;;6.53;5.32;;;19.50;99.90;;;;;;6338361;22;20354;-78
2022/08/12 05:54:05;;;;;;;6.75;5.25;;;19.50;99.90;;;;;;6338166;22;20009;-77
2022/08/12 05:56:33;;;;;;;10.70;6.22;;;19.50;99.90;;;;;;6338328;22;20018;-74
2022/08/12 05:59:01;;;;;;;8.13;5.43;;;19.60;99.90;;;;;;6337977;22;20002;-77
2022/08/12 06:01:27;;;;;;;12.55;5.15;;;19.60;99.90;;;;;;6337555;22;20501;-77
2022/08/12 06:03:54;;;;;;;10.45;6.00;;;19.70;99.90;;;;;;6338465;22;20014;-77
2022/08/12 06:06:21;;;;;;;6.10;5.30;;;19.80;99.90;;;;;;6337696;22;20324;-78
2022/08/12 06:08:52;;;;;;;6.15;5.10;;;19.90;99.90;;;;;;6338601;22;20121;-76
2022/08/12 06:11:18;;;;;;;5.80;5.30;;;19.90;99.90;;;;;;6338096;22;20353;-75
2022/08/12 06:13:44;;;;;;;5.78;5.20;;;20.00;99.90;;;;;;6337624;22;20414;-76
2022/08/12 06:16:13;;;;;;;7.97;5.70;;;20.00;99.90;;;;;;6338120;22;20044;-77
2022/08/12 06:18:39;;;;;;;7.40;6.57;;;20.10;99.90;;;;;;6338087;22;20519;-76
2022/08/12 06:21:11;;;;;;;6.07;5.60;;;20.20;99.90;;;;;;6337466;22;20002;-75
2022/08/12 06:23:37;;;;;;;6.25;5.55;;;20.20;99.90;;;;;;6337611;22;20353;-76
2022/08/12 06:26:04;;;;;;;6.15;5.55;;;20.20;99.90;;;;;;6337961;22;19998;-77
2022/08/12 06:28:30;;;;;;;5.85;5.35;;;20.30;99.90;;;;;;6337429;22;20363;-76
2022/08/12 06:30:56;;;;;;;7.57;6.15;;;20.30;99.90;;;;;;6338624;22;20367;-76
2022/08/12 06:33:22;;;;;;;7.43;6.13;;;20.40;99.90;;;;;;6337895;22;20003;-76
2022/08/12 06:35:49;;;;;;;6.50;5.90;;;20.50;99.90;;;;;;6338642;22;20051;-76
2022/08/12 06:38:20;;;;;;;6.45;5.43;;;20.50;99.90;;;;;;6338030;22;20007;-77
2022/08/12 06:43:32;;;;;;;6.65;6.05;;;20.70;99.90;;;;;;6337576;22;20085;-76
2022/08/12 06:45:58;;;;;;;6.75;5.25;;;20.80;99.90;;;;;;6339919;22;19998;-77
2022/08/12 06:48:25;;;;;;;7.07;6.07;;;20.80;99.90;;;;;;6337317;22;20355;-76
2022/08/12 06:50:52;;;;;;;7.55;5.05;;;20.90;99.90;;;;;;6338508;22;20056;-76
2022/08/12 06:53:17;;;;;;;5.82;5.22;;;20.90;99.90;;;;;;6338778;22;20003;-77
2022/08/12 06:55:43;;;;;;;5.63;5.00;;;21.00;99.90;;;;;;6337965;22;20377;-77
2022/08/12 06:58:10;;;;;;;9.00;5.70;;;21.10;99.90;;;;;;6337050;22;20011;-77
2022/08/12 07:00:36;;;;;;;6.07;5.20;;;21.20;99.90;;;;;;6336158;22;20003;-77
2022/08/12 07:03:03;;;;;;;8.65;4.60;;;21.30;99.90;;;;;;6335536;22;20009;-77
2022/08/12 07:05:29;;;;;;;5.80;5.30;;;21.40;99.90;;;;;;6335397;22;20091;-77
2022/08/12 07:07:58;;;;;;;4.78;4.22;;;21.50;99.90;;;;;;6335993;22;20002;-75
2022/08/12 07:10:24;;;;;;;4.22;3.90;;;21.60;99.90;;;;;;6335283;22;20357;-76
2022/08/12 07:12:54;;;;;;;4.50;4.10;;;21.70;99.90;;;;;;6337800;22;20393;-75
2022/08/12 07:15:24;;;;;;;4.03;3.72;;;21.80;99.90;;;;;;6337566;22;20056;-76
2022/08/12 07:17:52;;;;;;;4.50;4.10;;;21.90;99.80;;;;;;6337164;22;20010;-76
2022/08/12 07:20:18;;;;;;;4.05;3.65;;;22.00;99.60;;;;;;6337161;22;20315;-76
2022/08/12 07:22:43;;;;;;;6.13;4.45;;;22.20;99.30;;;;;;6337388;22;20018;-76
2022/08/12 07:28:00;;;;;;;3.80;3.50;;;22.20;98.20;;;;;;6338218;22;20026;-76
2022/08/12 07:30:29;;;;;;;3.85;3.55;;;22.30;98.10;;;;;;6305494;22;20068;-76
2022/08/12 07:32:55;;;;;;;4.93;3.80;;;22.40;98.10;;;;;;6338207;22;20007;-77
2022/08/12 07:35:21;;;;;;;7.60;4.13;;;22.50;97.40;;;;;;6337839;22;20032;-78
2022/08/12 07:37:49;;;;;;;4.25;3.75;;;22.70;97.30;;;;;;6338562;22;20579;-78
2022/08/12 07:40:15;;;;;;;5.88;3.92;;;22.70;97.10;;;;;;6340043;22;19999;-77
2022/08/12 07:42:42;;;;;;;4.50;3.78;;;22.80;97.00;;;;;;6341413;22;20033;-79
2022/08/12 07:45:08;;;;;;;5.40;3.83;;;22.80;97.00;;;;;;6341210;22;20434;-78
2022/08/12 07:47:34;;;;;;;5.82;4.30;;;22.90;96.90;;;;;;6338861;22;20077;-77
2022/08/12 07:50:01;;;;;;;6.43;4.53;;;23.00;96.60;;;;;;6339235;22;20009;-77
2022/08/12 07:52:27;;;;;;;5.32;4.40;;;23.10;96.50;;;;;;6338710;22;20060;-74
2022/08/12 07:54:53;;;;;;;3.70;3.40;;;23.10;96.80;;;;;;6340732;22;20082;-77
2022/08/12 07:57:19;;;;;;;4.78;3.35;;;23.20;97.00;;;;;;6339344;22;20426;-76
2022/08/12 07:59:45;;;;;;;5.63;4.50;;;23.30;97.10;;;;;;6337967;22;20002;-76
2022/08/12 08:02:11;;;;;;;4.32;3.60;;;23.40;96.90;;;;;;6337830;22;20304;-75
2022/08/12 08:04:55;;;;;;;7.90;4.30;;;23.40;96.70;;;;;;6338153;22;20003;-75
2022/08/12 08:07:23;;;;;;;4.47;3.95;;;23.50;96.30;;;;;;6337365;22;19998;-75
2022/08/12 08:09:49;;;;;;;4.85;3.72;;;23.60;95.60;;;;;;6338400;22;20045;-74
2022/08/12 08:14:59;;;;;;;5.50;4.15;;;23.80;95.60;;;;;;6337759;22;20094;-75
2022/08/12 08:17:25;;;;;;;4.50;4.10;;;23.80;95.00;;;;;;6338199;22;20014;-77
2022/08/12 08:19:54;;;;;;;5.63;4.70;;;23.90;94.90;;;;;;6338139;22;20026;-77
2022/08/12 08:22:23;;;;;;;7.60;3.78;;;23.90;94.20;;;;;;6338387;22;20372;-77
2022/08/12 08:24:55;;;;;;;3.70;3.38;;;24.00;94.30;;;;;;6342922;22;20022;-77
2022/08/12 08:27:21;;;;;;;5.43;4.30;;;24.10;94.30;;;;;;6342176;22;20007;-77
2022/08/12 08:29:47;;;;;;;9.25;4.40;;;24.20;94.80;;;;;;6343223;22;20411;-78
2022/08/12 08:32:12;;;;;;;10.00;4.53;;;24.30;95.00;;;;;;6342795;22;20738;-78
2022/08/12 08:34:38;;;;;;;4.65;3.85;;;24.40;94.90;;;;;;6342086;22;20017;-77
2022/08/12 08:37:03;;;;;;;5.78;4.25;;;24.40;94.70;;;;;;6343299;22;20022;-76
2022/08/12 08:39:30;;;;;;;7.85;4.28;;;24.50;94.60;;;;;;6343514;22;20009;-77
2022/08/12 08:44:41;;;;;;;4.00;3.70;;;24.60;94.20;;;;;;6342180;22;20047;-77
2022/08/12 08:47:09;;;;;;;9.52;4.57;;;24.70;94.30;;;;;;6339324;22;20006;-77
2022/08/12 08:49:35;;;;;;;4.07;3.40;;;24.80;94.00;;;;;;6338699;22;20029;-77
2022/08/12 08:52:02;;;;;;;5.47;3.85;;;24.90;93.50;;;;;;6339245;22;20073;-73
2022/08/12 08:54:32;;;;;;;5.18;4.28;;;25.00;93.30;;;;;;6338790;22;20025;-75
2022/08/12 08:57:01;;;;;;;8.35;3.47;;;25.00;92.80;;;;;;6338517;22;20414;-73
2022/08/12 08:59:27;;;;;;;11.48;4.68;;;25.10;92.00;;;;;;6338685;22;19995;-74
2022/08/12 09:01:53;;;;;;;6.72;4.00;;;25.20;92.00;;;;;;6338454;22;20006;-77
2022/08/12 09:04:19;;;;;;;4.95;4.22;;;25.20;92.10;;;;;;6339987;22;20070;-76
2022/08/12 09:06:48;;;;;;;5.03;3.30;;;25.30;92.10;;;;;;6339416;22;20033;-74
2022/08/12 09:09:16;;;;;;;240.63;17.13;;;25.40;92.00;;;;;;6337969;22;20492;-76
2022/08/12 09:14:27;;;;;;;5.25;3.45;;;25.60;92.00;;;;;;6315376;22;20046;-73
2022/08/12 09:16:52;;;;;;;8.75;3.55;;;25.80;92.00;;;;;;6338208;22;20018;-73
2022/08/12 09:19:18;;;;;;;3.83;2.95;;;25.80;92.10;;;;;;6338845;22;20373;-74
2022/08/12 09:21:47;;;;;;;5.20;3.40;;;25.90;91.70;;;;;;6338648;22;20319;-74
2022/08/12 09:24:17;;;;;;;10.23;3.87;;;26.00;91.60;;;;;;6337517;22;20015;-73
2022/08/12 09:26:44;;;;;;;6.20;3.35;;;26.20;91.30;;;;;;6338709;22;19995;-73
2022/08/12 09:29:12;;;;;;;6.50;3.67;;;26.20;90.70;;;;;;6338543;22;20068;-77
2022/08/12 09:31:40;;;;;;;11.32;3.40;;;26.20;90.80;;;;;;6338540;22;20002;-75
2022/08/12 09:34:07;;;;;;;5.13;3.65;;;26.30;90.80;;;;;;6339135;22;20029;-74
2022/08/12 09:36:34;;;;;;;7.75;3.40;;;26.40;91.00;;;;;;6337711;22;20056;-74
2022/08/12 09:39:01;;;;;;;7.07;3.95;;;26.40;91.10;;;;;;6338450;22;20074;-74
2022/08/12 09:41:27;;;;;;;10.63;3.92;;;26.50;90.60;;;;;;6338514;22;20031;-74
2022/08/12 09:46:36;;;;;;;10.40;3.40;;;26.80;90.50;;;;;;6338596;22;20006;-75
2022/08/12 09:49:03;;;;;;;3.47;2.88;;;26.80;90.00;;;;;;6338760;22;20002;-75
2022/08/12 09:51:33;;;;;;;3.38;3.08;;;26.90;89.40;;;;;;6337639;22;20009;-74
2022/08/12 09:54:00;;;;;;;3.20;3.00;;;27.00;89.60;;;;;;6338423;22;20790;-74
2022/08/12 09:56:27;;;;;;;3.13;2.92;;;27.10;89.60;;;;;;6338055;22;20040;-74
2022/08/12 09:58:53;;;;;;;6.55;2.85;;;27.20;89.60;;;;;;6338051;22;20045;-74
2022/08/12 10:01:19;;;;;;;16.75;4.00;;;27.20;88.00;;;;;;6338365;22;19999;-75
2022/08/12 10:03:45;;;;;;;4.30;3.00;;;27.30;87.90;;;;;;6338690;22;20402;-72
2022/08/12 10:06:11;;;;;;;7.00;3.38;;;27.30;87.40;;;;;;6337696;22;20046;-72
2022/08/12 10:08:37;;;;;;;4.72;3.13;;;27.40;86.80;;;;;;6338709;22;20360;-72
2022/08/12 10:13:53;;;;;;;3.40;3.10;;;27.50;86.80;;;;;;6337845;22;20064;-72
2022/08/12 10:16:22;;;;;;;4.82;3.42;;;27.50;85.50;;;;;;6337997;22;20023;-73
2022/08/12 10:19:11;;;;;;;3.58;2.92;;;27.70;84.80;;;;;;6338623;22;20014;-73
2022/08/12 10:21:40;;;;;;;4.03;3.00;;;27.80;85.80;;;;;;6339128;22;20044;-73
2022/08/12 10:24:08;;;;;;;5.07;3.20;;;27.80;84.50;;;;;;6342351;22;20030;-74
2022/08/12 10:29:38;;;;;;;9.40;2.97;;;28.10;84.00;;;;;;6338738;22;20345;-78
2022/08/12 10:32:06;;;;;;;5.57;3.65;;;28.10;82.30;;;;;;6339372;22;20026;-79
2022/08/12 10:34:33;;;;;;;8.05;3.58;;;28.20;81.30;;;;;;6341684;22;20079;-80
2022/08/12 10:37:00;;;;;;;4.20;3.00;;;28.30;81.80;;;;;;6341575;22;20011;-78
2022/08/12 10:39:36;;;;;;;20.88;3.85;;;28.30;81.50;;;;;;6341983;22;19995;-79
2022/08/12 10:44:49;;;;;;;8.23;2.90;;;28.40;80.00;;;;;;6338995;22;20074;-74
2022/08/12 10:47:15;;;;;;;10.43;3.15;;;28.50;81.00;;;;;;6338154;22;20300;-79
2022/08/12 10:49:42;;;;;;;6.22;3.42;;;28.60;80.10;;;;;;6311686;22;20007;-77
2022/08/12 10:52:07;;;;;;;6.78;2.47;;;28.80;79.40;;;;;;6339149;22;20006;-78
2022/08/12 10:54:33;;;;;;;4.57;2.63;;;28.90;78.90;;;;;;6337454;22;20003;-79
2022/08/12 10:56:59;;;;;;;10.80;2.72;;;29.00;78.30;;;;;;6338369;22;20086;-78
2022/08/12 10:59:28;;;;;;;6.22;2.47;;;29.10;78.30;;;;;;6338127;22;20006;-76
2022/08/12 11:01:55;;;;;;;5.43;2.80;;;29.20;77.20;;;;;;6338338;22;20078;-77
2022/08/12 11:04:22;;;;;;;4.55;3.53;;;29.10;76.20;;;;;;6338544;22;19999;-79
2022/08/12 11:06:49;;;;;;;3.60;3.05;;;29.10;76.30;;;;;;6338684;22;20003;-76
2022/08/12 11:09:29;;;;;;;2.95;2.60;;;29.20;75.90;;;;;;6338161;22;19999;-79
2022/08/12 11:11:56;;;;;;;;;;;29.30;75.50;;;;;;6339044;22;20071;-77
2022/08/12 11:14:27;;;;;;;5.32;2.97;;;29.40;74.80;;;;;;6337499;22;20269;-78
2022/08/12 11:16:56;;;;;;;2.60;2.40;;;29.40;74.90;;;;;;6337930;22;20346;-77
2022/08/12 11:19:24;;;;;;;3.80;2.70;;;29.40;74.10;;;;;;6337341;22;20085;-77
2022/08/12 11:21:51;;;;;;;2.53;2.33;;;29.50;72.80;;;;;;6337894;22;19999;-77
2022/08/12 11:24:17;;;;;;;4.00;2.60;;;29.50;73.00;;;;;;6336675;22;20474;-77
2022/08/12 11:26:43;;;;;;;6.13;2.80;;;29.50;73.00;;;;;;6338293;22;20017;-78
2022/08/12 11:29:08;;;;;;;2.92;2.47;;;29.50;72.20;;;;;;6337882;22;20093;-77
2022/08/12 11:31:34;;;;;;;6.35;3.00;;;29.50;72.10;;;;;;6337725;22;20437;-78
2022/08/12 11:33:59;;;;;;;9.68;3.15;;;29.60;71.30;;;;;;6338904;22;19999;-78
2022/08/12 11:36:25;;;;;;;3.15;2.80;;;29.60;71.50;;;;;;6337749;22;20052;-78
2022/08/12 11:38:51;;;;;;;5.00;2.70;;;29.60;70.50;;;;;;6337870;22;20014;-78
2022/08/12 11:41:20;;;;;;;3.42;2.78;;;29.80;70.60;;;;;;6337039;22;20018;-77
2022/08/12 11:43:46;;;;;;;4.43;2.95;;;29.90;70.80;;;;;;6337466;22;20006;-79
2022/08/12 11:46:11;;;;;;;8.18;2.92;;;29.90;70.20;;;;;;6338395;22;20314;-78
2022/08/12 11:48:38;;;;;;;4.85;3.05;;;30.10;70.30;;;;;;6336944;22;20123;-79
2022/08/12 11:51:07;;;;;;;4.88;2.53;;;30.20;69.80;;;;;;6337218;22;19998;-78
2022/08/12 11:53:34;;;;;;;2.67;2.40;;;30.20;69.80;;;;;;6337424;22;20031;-78
2022/08/12 11:55:59;;;;;;;2.95;2.70;;;30.30;69.40;;;;;;6337284;22;20407;-78
2022/08/12 11:58:25;;;;;;;6.60;2.92;;;30.20;69.20;;;;;;6337007;22;20094;-78
2022/08/12 12:00:52;;;;;;;3.28;2.70;;;30.20;69.20;;;;;;6339657;22;20037;-78
2022/08/12 12:03:18;;;;;;;5.88;2.65;;;30.30;69.60;;;;;;6338689;22;19999;-78
2022/08/12 12:05:44;;;;;;;6.20;2.92;;;30.30;69.50;;;;;;6339292;22;20009;-78
2022/08/12 12:08:18;;;;;;;2.90;2.47;;;30.40;68.40;;;;;;6339173;22;19999;-78
2022/08/12 12:10:44;;;;;;;4.13;2.65;;;30.50;68.30;;;;;;6339500;22;19999;-78
2022/08/12 12:13:09;;;;;;;4.68;3.00;;;30.50;68.80;;;;;;6338518;22;19998;-78
2022/08/12 12:15:37;;;;;;;4.75;2.97;;;30.60;68.70;;;;;;6340873;22;20013;-78
2022/08/12 12:18:03;;;;;;;10.18;2.78;;;30.60;67.80;;;;;;6339029;22;20368;-78
2022/08/12 12:20:29;;;;;;;4.60;2.75;;;30.60;67.90;;;;;;6338440;22;20006;-78
2022/08/12 12:22:54;;;;;;;3.55;2.83;;;30.70;66.60;;;;;;6341510;22;20025;-78
2022/08/12 12:25:20;;;;;;;7.43;2.67;;;30.70;67.10;;;;;;6338880;22;19999;-79
2022/08/12 12:27:46;;;;;;;4.13;2.83;;;30.90;66.80;;;;;;6338841;22;20034;-79
2022/08/12 12:30:12;;;;;;;3.72;2.67;;;30.80;67.00;;;;;;6339192;22;19999;-79
2022/08/12 12:32:38;;;;;;;7.03;2.75;;;30.90;66.50;;;;;;6336217;22;20003;-78
2022/08/12 12:35:04;;;;;;;3.92;2.58;;;30.90;66.10;;;;;;6336433;22;20411;-78
2022/08/12 12:37:30;;;;;;;3.90;2.70;;;31.00;65.40;;;;;;6337446;22;20061;-78
2022/08/12 12:39:59;;;;;;;6.18;3.13;;;31.00;67.10;;;;;;6337333;22;19994;-78
2022/08/12 12:42:24;;;;;;;4.82;2.70;;;31.10;67.40;;;;;;6336791;22;20002;-77
2022/08/12 12:44:50;;;;;;;2.85;2.65;;;31.00;66.40;;;;;;6336988;22;20005;-78
2022/08/12 12:47:16;;;;;;;8.90;2.65;;;31.10;65.90;;;;;;6337047;22;19999;-79
2022/08/12 12:49:42;;;;;;;4.82;2.38;;;31.30;65.60;;;;;;6337762;22;20013;-77
2022/08/12 12:52:08;;;;;;;3.30;2.50;;;31.30;64.50;;;;;;6337346;22;20003;-76
2022/08/12 12:54:33;;;;;;;2.90;2.60;;;31.40;65.20;;;;;;6337374;22;20005;-77
2022/08/12 12:56:59;;;;;;;6.28;2.47;;;31.50;64.50;;;;;;6337960;22;20011;-79
2022/08/12 12:59:26;;;;;;;2.85;2.35;;;31.50;64.10;;;;;;6337350;22;20002;-80
2022/08/12 13:01:52;;;;;;;3.63;2.83;;;31.60;63.80;;;;;;6336910;22;20415;-79
2022/08/12 13:04:18;;;;;;;3.67;2.78;;;31.70;64.10;;;;;;6338225;22;19999;-79
2022/08/12 13:06:50;;;;;;;2.90;2.38;;;31.70;64.20;;;;;;6339471;22;20006;-77
2022/08/12 13:09:17;;;;;;;3.70;2.55;;;31.70;63.90;;;;;;6339708;22;20075;-78
2022/08/12 13:11:43;;;;;;;4.38;2.55;;;31.80;62.80;;;;;;6340693;22;20007;-77
2022/08/12 13:14:10;;;;;;;3.13;2.40;;;31.80;62.70;;;;;;6337639;22;20429;-79
2022/08/12 13:16:37;;;;;;;4.53;3.10;;;31.90;62.70;;;;;;6338764;22;20018;-80
2022/08/12 13:19:02;;;;;;;4.80;2.72;;;32.00;63.90;;;;;;6338279;22;20006;-79
2022/08/12 13:21:31;;;;;;;2.70;2.50;;;32.20;63.70;;;;;;6338759;22;20709;-79
2022/08/12 13:23:57;;;;;;;3.47;2.70;;;32.30;63.10;;;;;;6339814;22;20018;-77
2022/08/12 13:26:31;;;;;;;4.43;2.60;;;32.30;63.10;;;;;;6338611;22;20060;-77
2022/08/12 13:28:57;;;;;;;2.95;2.50;;;32.40;62.60;;;;;;6337760;22;20014;-80
2022/08/12 13:31:23;;;;;;;5.20;2.65;;;32.50;61.90;;;;;;6337023;22;20005;-79
2022/08/12 13:33:50;;;;;;;5.53;2.63;;;32.60;61.80;;;;;;6336774;22;19999;-78
2022/08/12 13:36:17;;;;;;;4.35;2.50;;;32.80;61.70;;;;;;6336224;22;20032;-79
2022/08/12 13:38:52;;;;;;;4.45;3.00;;;32.80;62.20;;;;;;6338204;22;20508;-77
2022/08/12 13:44:05;;;;;;;3.33;2.80;;;33.00;61.40;;;;;;6337189;22;20124;-78
2022/08/12 13:46:31;;;;;;;9.00;3.00;;;33.10;61.70;;;;;;6337915;22;19995;-79
2022/08/12 13:48:57;;;;;;;6.25;2.53;;;33.10;61.00;;;;;;6336381;22;20018;-78
2022/08/12 13:51:23;;;;;;;10.98;3.00;;;33.20;61.30;;;;;;6337181;22;20007;-79
2022/08/12 13:53:49;;;;;;;2.60;2.40;;;33.20;61.30;;;;;;6338149;22;20002;-78
2022/08/12 13:56:15;;;;;;;6.45;2.83;;;33.30;60.70;;;;;;6337006;22;19995;-79
2022/08/12 13:58:47;;;;;;;5.35;2.58;;;33.40;61.00;;;;;;6335755;22;20011;-76
2022/08/12 14:01:19;;;;;;;3.28;2.65;;;33.50;60.70;;;;;;6337005;22;20319;-76
2022/08/12 14:03:45;;;;;;;4.57;3.10;;;33.70;60.80;;;;;;6337516;22;20495;-76
2022/08/12 14:06:11;;;;;;;3.30;2.42;;;33.80;60.90;;;;;;6336879;22;20003;-74
2022/08/12 14:08:37;;;;;;;6.15;3.10;;;33.70;59.10;;;;;;6337281;22;20369;-76
2022/08/12 14:11:03;;;;;;;4.65;2.83;;;33.70;58.60;;;;;;6337818;22;20454;-77
2022/08/12 14:13:30;;;;;;;6.03;2.75;;;33.60;59.50;;;;;;6337181;22;20002;-75
2022/08/12 14:15:59;;;;;;;5.15;2.72;;;33.50;59.00;;;;;;6337360;22;20449;-75
2022/08/12 14:18:27;;;;;;;4.35;3.08;;;33.60;59.20;;;;;;6335686;22;20492;-76
2022/08/12 14:20:59;;;;;;;6.28;2.70;;;33.70;59.20;;;;;;6336397;22;20003;-76
2022/08/12 14:23:32;;;;;;;4.35;2.70;;;33.90;59.20;;;;;;6337362;22;20021;-76
2022/08/12 14:25:59;;;;;;;3.30;2.65;;;34.00;59.80;;;;;;6339671;22;20056;-76
2022/08/12 14:28:31;;;;;;;2.40;2.30;;;34.10;59.00;;;;;;6319316;22;20026;-77
2022/08/12 14:31:17;;;;;;;4.38;2.60;;;34.10;59.20;;;;;;6339632;22;19999;-77
2022/08/12 14:33:47;;;;;;;8.77;3.03;;;34.10;59.70;;;;;;6337808;22;20034;-75
2022/08/12 14:36:19;;;;;;;6.90;3.13;;;34.20;58.90;;;;;;6339495;22;20006;-75
2022/08/12 14:38:46;;;;;;;7.43;2.58;;;34.20;59.00;;;;;;6340241;22;20022;-76
2022/08/12 14:41:19;;;;;;;4.57;2.50;;;34.20;59.20;;;;;;6340638;22;20119;-75
2022/08/12 14:43:47;;;;;;;2.80;2.42;;;34.30;59.00;;;;;;6342084;22;20006;-76